sensor_id;sensor_type;location;lat;lon;timestamp;pressure;altitude;pressure_sealevel;temperature;humidity
53262;BME280;39658;51.090;-1.786;2023-01-16T00:01:41;97904.03;;;22.60;76.83
53262;BME280;39658;51.090;-1.786;2023-01-16T00:04:08;97888.78;;;22.50;76.76
53262;BME280;39658;51.090;-1.786;2023-01-16T00:06:35;97889.34;;;22.33;77.61
53262;BME280;39658;51.090;-1.786;2023-01-16T00:09:03;97877.50;;;22.29;77.40
53262;BME280;39658;51.090;-1.786;2023-01-16T00:11:29;97872.91;;;22.30;77.18
53262;BME280;39658;51.090;-1.786;2023-01-16T00:13:58;97869.47;;;22.24;77.28
53262;BME280;39658;51.090;-1.786;2023-01-16T00:16:25;97857.75;;;22.15;77.51
53262;BME280;39658;51.090;-1.786;2023-01-16T00:18:52;97848.72;;;22.06;77.79
53262;BME280;39658;51.090;-1.786;2023-01-16T00:21:19;97829.78;;;22.01;77.83
53262;BME280;39658;51.090;-1.786;2023-01-16T00:23:49;97831.28;;;21.93;78.06
53262;BME280;39658;51.090;-1.786;2023-01-16T00:26:16;97819.75;;;21.87;78.24
53262;BME280;39658;51.090;-1.786;2023-01-16T00:28:43;97795.28;;;21.79;78.25
53262;BME280;39658;51.090;-1.786;2023-01-16T00:31:11;97796.47;;;21.73;78.02
53262;BME280;39658;51.090;-1.786;2023-01-16T00:33:38;97787.34;;;21.69;77.93
53262;BME280;39658;51.090;-1.786;2023-01-16T00:36:05;97789.34;;;21.63;78.02
53262;BME280;39658;51.090;-1.786;2023-01-16T00:38:32;97773.97;;;21.58;78.18
53262;BME280;39658;51.090;-1.786;2023-01-16T00:40:59;97762.75;;;21.51;78.29
53262;BME280;39658;51.090;-1.786;2023-01-16T00:43:26;97766.03;;;21.48;78.36
53262;BME280;39658;51.090;-1.786;2023-01-16T00:45:52;97759.34;;;21.46;78.20
53262;BME280;39658;51.090;-1.786;2023-01-16T00:48:23;97747.78;;;21.40;78.24
53262;BME280;39658;51.090;-1.786;2023-01-16T00:50:50;97743.28;;;21.36;78.31
53262;BME280;39658;51.090;-1.786;2023-01-16T00:53:16;97735.25;;;21.31;78.35
53262;BME280;39658;51.090;-1.786;2023-01-16T00:55:43;97727.22;;;21.25;78.32
53262;BME280;39658;51.090;-1.786;2023-01-16T00:58:10;97727.00;;;21.22;78.32
53262;BME280;39658;51.090;-1.786;2023-01-16T01:00:38;97717.03;;;21.17;78.06
53262;BME280;39658;51.090;-1.786;2023-01-16T01:03:05;97714.44;;;21.12;78.38
53262;BME280;39658;51.090;-1.786;2023-01-16T01:05:36;97711.00;;;21.07;78.49
53262;BME280;39658;51.090;-1.786;2023-01-16T01:08:04;97695.97;;;21.01;78.54
53262;BME280;39658;51.090;-1.786;2023-01-16T01:10:31;97677.13;;;20.95;78.54
53262;BME280;39658;51.090;-1.786;2023-01-16T01:12:58;97671.22;;;20.93;78.48
53262;BME280;39658;51.090;-1.786;2023-01-16T01:15:25;97665.63;;;20.90;78.33
53262;BME280;39658;51.090;-1.786;2023-01-16T01:17:52;97655.69;;;20.85;78.36
53262;BME280;39658;51.090;-1.786;2023-01-16T01:20:18;97646.56;;;20.81;78.47
53262;BME280;39658;51.090;-1.786;2023-01-16T01:22:47;97646.34;;;20.78;78.38
53262;BME280;39658;51.090;-1.786;2023-01-16T01:25:13;97638.00;;;20.74;78.45
53262;BME280;39658;51.090;-1.786;2023-01-16T01:27:40;97626.19;;;20.70;78.30
53262;BME280;39658;51.090;-1.786;2023-01-16T01:30:08;97624.47;;;20.60;78.70
53262;BME280;39658;51.090;-1.786;2023-01-16T01:32:36;97621.56;;;20.57;78.65
53262;BME280;39658;51.090;-1.786;2023-01-16T01:35:04;97622.16;;;20.54;78.50
53262;BME280;39658;51.090;-1.786;2023-01-16T01:37:32;97615.44;;;20.51;78.55
53262;BME280;39658;51.090;-1.786;2023-01-16T01:40:00;97605.53;;;20.47;78.38
53262;BME280;39658;51.090;-1.786;2023-01-16T01:42:27;97613.13;;;20.45;78.38
53262;BME280;39658;51.090;-1.786;2023-01-16T01:45:13;97588.31;;;20.43;78.11
53262;BME280;39658;51.090;-1.786;2023-01-16T01:47:44;97588.31;;;20.38;78.15
53262;BME280;39658;51.090;-1.786;2023-01-16T01:50:18;97579.22;;;20.33;78.23
53262;BME280;39658;51.090;-1.786;2023-01-16T01:52:46;97574.41;;;20.30;78.12
53262;BME280;39658;51.090;-1.786;2023-01-16T01:55:15;97566.88;;;20.27;78.16
53262;BME280;39658;51.090;-1.786;2023-01-16T01:57:45;97574.47;;;20.25;77.97
53262;BME280;39658;51.090;-1.786;2023-01-16T02:00:16;97566.97;;;20.22;77.95
53262;BME280;39658;51.090;-1.786;2023-01-16T02:02:48;97562.97;;;20.20;78.09
53262;BME280;39658;51.090;-1.786;2023-01-16T02:05:19;97562.25;;;20.14;77.90
53262;BME280;39658;51.090;-1.786;2023-01-16T02:07:48;97562.03;;;20.11;78.00
53262;BME280;39658;51.090;-1.786;2023-01-16T02:10:21;97554.53;;;20.08;77.93
53262;BME280;39658;51.090;-1.786;2023-01-16T02:12:53;97559.41;;;20.06;77.86
53262;BME280;39658;51.090;-1.786;2023-01-16T02:15:21;97558.91;;;20.03;77.90
53262;BME280;39658;51.090;-1.786;2023-01-16T02:17:49;97550.56;;;20.00;77.98
53262;BME280;39658;51.090;-1.786;2023-01-16T02:20:42;97543.84;;;19.97;77.57
53262;BME280;39658;51.090;-1.786;2023-01-16T02:23:47;97539.84;;;19.95;77.59
53262;BME280;39658;51.090;-1.786;2023-01-16T02:29:40;97540.50;;;19.87;77.67
53262;BME280;39658;51.090;-1.786;2023-01-16T02:32:17;97527.59;;;19.84;77.72
53262;BME280;39658;51.090;-1.786;2023-01-16T02:35:00;97534.31;;;19.86;77.32
53262;BME280;39658;51.090;-1.786;2023-01-16T02:37:38;97532.72;;;19.85;77.18
53262;BME280;39658;51.090;-1.786;2023-01-16T02:40:18;97525.72;;;19.84;77.09
53262;BME280;39658;51.090;-1.786;2023-01-16T02:42:53;97528.78;;;19.78;77.37
53262;BME280;39658;51.090;-1.786;2023-01-16T02:45:29;97527.53;;;19.70;77.29
53262;BME280;39658;51.090;-1.786;2023-01-16T02:48:04;97529.22;;;19.66;77.38
53262;BME280;39658;51.090;-1.786;2023-01-16T02:50:37;97525.22;;;19.63;77.36
53262;BME280;39658;51.090;-1.786;2023-01-16T02:53:11;97529.00;;;19.62;77.51
53262;BME280;39658;51.090;-1.786;2023-01-16T02:55:44;97526.56;;;19.61;77.33
53262;BME280;39658;51.090;-1.786;2023-01-16T02:58:13;97519.84;;;19.58;77.33
53262;BME280;39658;51.090;-1.786;2023-01-16T03:00:48;97523.13;;;19.55;77.43
53262;BME280;39658;51.090;-1.786;2023-01-16T03:03:36;97518.28;;;19.52;77.04
53262;BME280;39658;51.090;-1.786;2023-01-16T03:06:17;97518.38;;;19.47;77.10
53262;BME280;39658;51.090;-1.786;2023-01-16T03:08:56;97526.00;;;19.40;77.14
53262;BME280;39658;51.090;-1.786;2023-01-16T03:11:28;97516.59;;;19.37;77.25
53262;BME280;39658;51.090;-1.786;2023-01-16T03:14:04;97520.41;;;19.36;77.34
53262;BME280;39658;51.090;-1.786;2023-01-16T03:16:39;97525.56;;;19.33;77.24
53262;BME280;39658;51.090;-1.786;2023-01-16T03:19:28;97530.44;;;19.31;77.20
53262;BME280;39658;51.090;-1.786;2023-01-16T03:22:08;97520.25;;;19.28;77.58
53262;BME280;39658;51.090;-1.786;2023-01-16T03:24:49;97522.38;;;19.31;77.07
53262;BME280;39658;51.090;-1.786;2023-01-16T03:27:31;97534.53;;;19.28;77.09
53262;BME280;39658;51.090;-1.786;2023-01-16T03:30:08;97524.03;;;19.27;76.83
53262;BME280;39658;51.090;-1.786;2023-01-16T03:32:41;97526.72;;;19.27;76.81
53262;BME280;39658;51.090;-1.786;2023-01-16T03:35:14;97518.16;;;19.20;76.71
53262;BME280;39658;51.090;-1.786;2023-01-16T03:37:46;97523.34;;;19.16;76.58
53262;BME280;39658;51.090;-1.786;2023-01-16T03:40:18;97519.31;;;19.14;76.51
53262;BME280;39658;51.090;-1.786;2023-01-16T03:42:49;97516.91;;;19.12;76.78
53262;BME280;39658;51.090;-1.786;2023-01-16T03:45:21;97525.56;;;19.09;76.74
53262;BME280;39658;51.090;-1.786;2023-01-16T03:47:54;97532.06;;;19.08;76.67
53262;BME280;39658;51.090;-1.786;2023-01-16T03:50:27;97535.03;;;19.06;76.48
53262;BME280;39658;51.090;-1.786;2023-01-16T03:52:57;97531.03;;;19.04;76.55
53262;BME280;39658;51.090;-1.786;2023-01-16T03:55:30;97530.00;;;19.00;76.67
53262;BME280;39658;51.090;-1.786;2023-01-16T03:58:03;97542.44;;;18.96;76.85
53262;BME280;39658;51.090;-1.786;2023-01-16T04:00:37;97535.44;;;18.95;76.37
53262;BME280;39658;51.090;-1.786;2023-01-16T04:03:10;97540.56;;;18.96;76.61
53262;BME280;39658;51.090;-1.786;2023-01-16T04:05:44;97535.16;;;18.96;76.17
53262;BME280;39658;51.090;-1.786;2023-01-16T04:08:15;97534.66;;;18.94;76.08
53262;BME280;39658;51.090;-1.786;2023-01-16T04:10:46;97536.81;;;18.92;76.20
53262;BME280;39658;51.090;-1.786;2023-01-16T04:13:16;97537.91;;;18.91;75.92
53262;BME280;39658;51.090;-1.786;2023-01-16T04:15:47;97545.47;;;18.89;76.10
53262;BME280;39658;51.090;-1.786;2023-01-16T04:18:16;97554.44;;;18.85;76.08
53262;BME280;39658;51.090;-1.786;2023-01-16T04:20:46;97562.78;;;18.83;76.19
53262;BME280;39658;51.090;-1.786;2023-01-16T04:23:15;97563.63;;;18.78;76.58
53262;BME280;39658;51.090;-1.786;2023-01-16T04:25:42;97565.50;;;18.78;76.47
53262;BME280;39658;51.090;-1.786;2023-01-16T04:28:09;97559.91;;;18.74;76.18
53262;BME280;39658;51.090;-1.786;2023-01-16T04:30:36;97562.88;;;18.73;76.51
53262;BME280;39658;51.090;-1.786;2023-01-16T04:33:03;97555.88;;;18.72;76.40
53262;BME280;39658;51.090;-1.786;2023-01-16T04:35:30;97561.56;;;18.70;76.24
53262;BME280;39658;51.090;-1.786;2023-01-16T04:37:59;97568.03;;;18.69;76.13
53262;BME280;39658;51.090;-1.786;2023-01-16T04:40:26;97574.50;;;18.68;76.33
53262;BME280;39658;51.090;-1.786;2023-01-16T04:42:53;97581.78;;;18.68;76.15
53262;BME280;39658;51.090;-1.786;2023-01-16T04:45:20;97582.06;;;18.66;75.96
53262;BME280;39658;51.090;-1.786;2023-01-16T04:47:48;97590.44;;;18.65;76.24
53262;BME280;39658;51.090;-1.786;2023-01-16T04:50:15;97583.44;;;18.64;75.81
53262;BME280;39658;51.090;-1.786;2023-01-16T04:52:43;97592.84;;;18.61;75.87
53262;BME280;39658;51.090;-1.786;2023-01-16T04:55:11;97596.91;;;18.59;76.38
53262;BME280;39658;51.090;-1.786;2023-01-16T04:57:38;97591.00;;;18.57;75.90
53262;BME280;39658;51.090;-1.786;2023-01-16T05:00:08;97608.53;;;18.54;76.30
53262;BME280;39658;51.090;-1.786;2023-01-16T05:02:35;97615.00;;;18.53;76.02
53262;BME280;39658;51.090;-1.786;2023-01-16T05:05:02;97605.38;;;18.47;76.31
53262;BME280;39658;51.090;-1.786;2023-01-16T05:07:28;97626.66;;;18.43;76.66
53262;BME280;39658;51.090;-1.786;2023-01-16T05:09:55;97620.75;;;18.41;76.66
53262;BME280;39658;51.090;-1.786;2023-01-16T05:12:23;97630.97;;;18.39;76.39
53262;BME280;39658;51.090;-1.786;2023-01-16T05:14:50;97632.06;;;18.38;76.24
53262;BME280;39658;51.090;-1.786;2023-01-16T05:17:17;97632.06;;;18.38;76.15
53262;BME280;39658;51.090;-1.786;2023-01-16T05:19:48;97640.69;;;18.35;76.25
53262;BME280;39658;51.090;-1.786;2023-01-16T05:22:14;97649.59;;;18.36;76.29
53262;BME280;39658;51.090;-1.786;2023-01-16T05:24:41;97648.53;;;18.32;76.66
53262;BME280;39658;51.090;-1.786;2023-01-16T05:27:08;97649.91;;;18.29;76.50
53262;BME280;39658;51.090;-1.786;2023-01-16T05:29:36;97658.00;;;18.24;76.48
53262;BME280;39658;51.090;-1.786;2023-01-16T05:32:03;97666.38;;;18.23;76.72
53262;BME280;39658;51.090;-1.786;2023-01-16T05:34:30;97659.66;;;18.20;76.73
53262;BME280;39658;51.090;-1.786;2023-01-16T05:36:57;97670.16;;;18.22;76.06
53262;BME280;39658;51.090;-1.786;2023-01-16T05:39:24;97672.31;;;18.20;76.17
53262;BME280;39658;51.090;-1.786;2023-01-16T05:41:50;97672.59;;;18.18;76.46
53262;BME280;39658;51.090;-1.786;2023-01-16T05:44:17;97686.03;;;18.18;76.17
53262;BME280;39658;51.090;-1.786;2023-01-16T05:46:46;97687.94;;;18.17;76.26
53262;BME280;39658;51.090;-1.786;2023-01-16T05:49:12;97676.38;;;18.17;75.88
53262;BME280;39658;51.090;-1.786;2023-01-16T05:51:39;97688.50;;;18.14;75.84
53262;BME280;39658;51.090;-1.786;2023-01-16T05:54:09;97692.81;;;18.10;76.10
53262;BME280;39658;51.090;-1.786;2023-01-16T05:56:36;97705.22;;;18.06;76.14
53262;BME280;39658;51.090;-1.786;2023-01-16T05:59:03;97703.88;;;18.04;76.38
53262;BME280;39658;51.090;-1.786;2023-01-16T06:01:30;97711.97;;;18.04;75.83
53262;BME280;39658;51.090;-1.786;2023-01-16T06:03:58;97726.78;;;18.01;76.22
53262;BME280;39658;51.090;-1.786;2023-01-16T06:06:25;97720.03;;;17.99;76.31
53262;BME280;39658;51.090;-1.786;2023-01-16T06:08:51;97713.03;;;17.98;76.11
53262;BME280;39658;51.090;-1.786;2023-01-16T06:11:18;97729.19;;;17.98;76.29
53262;BME280;39658;51.090;-1.786;2023-01-16T06:13:45;97739.66;;;17.99;76.51
53262;BME280;39658;51.090;-1.786;2023-01-16T06:16:12;97742.38;;;18.04;76.71
53262;BME280;39658;51.090;-1.786;2023-01-16T06:18:39;97746.66;;;18.10;76.50
53262;BME280;39658;51.090;-1.786;2023-01-16T06:21:07;97753.06;;;18.20;76.41
53262;BME280;39658;51.090;-1.786;2023-01-16T06:23:34;97759.22;;;18.25;76.47
53262;BME280;39658;51.090;-1.786;2023-01-16T06:26:01;97751.66;;;18.32;76.65
53262;BME280;39658;51.090;-1.786;2023-01-16T06:28:29;97756.19;;;18.42;76.11
53262;BME280;39658;51.090;-1.786;2023-01-16T06:30:56;97760.72;;;18.52;76.25
53262;BME280;39658;51.090;-1.786;2023-01-16T06:33:23;97763.91;;;18.64;75.62
53262;BME280;39658;51.090;-1.786;2023-01-16T06:35:50;97769.97;;;18.79;75.38
53262;BME280;39658;51.090;-1.786;2023-01-16T06:38:18;97765.59;;;18.94;75.25
53262;BME280;39658;51.090;-1.786;2023-01-16T06:40:45;97766.53;;;19.08;75.10
53262;BME280;39658;51.090;-1.786;2023-01-16T06:43:12;97763.75;;;19.23;74.59
53262;BME280;39658;51.090;-1.786;2023-01-16T06:45:40;97769.56;;;19.35;73.89
53262;BME280;39658;51.090;-1.786;2023-01-16T06:48:07;97778.38;;;19.46;73.86
53262;BME280;39658;51.090;-1.786;2023-01-16T06:50:34;97780.19;;;19.56;73.50
53262;BME280;39658;51.090;-1.786;2023-01-16T06:53:01;97782.00;;;19.65;73.04
53262;BME280;39658;51.090;-1.786;2023-01-16T06:55:29;97788.38;;;19.75;72.88
53262;BME280;39658;51.090;-1.786;2023-01-16T06:57:55;97782.88;;;19.85;72.83
53262;BME280;39658;51.090;-1.786;2023-01-16T07:00:23;97786.03;;;19.92;72.98
53262;BME280;39658;51.090;-1.786;2023-01-16T07:02:51;97797.78;;;20.01;72.34
53262;BME280;39658;51.090;-1.786;2023-01-16T07:05:20;97809.09;;;20.08;72.22
53262;BME280;39658;51.090;-1.786;2023-01-16T07:07:47;97813.03;;;20.16;72.40
53262;BME280;39658;51.090;-1.786;2023-01-16T07:10:14;97817.28;;;20.22;71.05
53262;BME280;39658;51.090;-1.786;2023-01-16T07:12:42;97814.53;;;20.27;71.29
53262;BME280;39658;51.090;-1.786;2023-01-16T07:15:10;97817.66;;;20.34;69.80
53262;BME280;39658;51.090;-1.786;2023-01-16T07:17:54;97819.00;;;20.42;70.34
53262;BME280;39658;51.090;-1.786;2023-01-16T07:20:38;97824.03;;;20.48;70.19
53262;BME280;39658;51.090;-1.786;2023-01-16T07:23:26;97837.47;;;20.53;70.37
53262;BME280;39658;51.090;-1.786;2023-01-16T07:25:54;97829.81;;;20.60;70.07
53262;BME280;39658;51.090;-1.786;2023-01-16T07:28:23;97835.94;;;20.66;70.08
53262;BME280;39658;51.090;-1.786;2023-01-16T07:30:50;97837.78;;;20.71;69.80
53262;BME280;39658;51.090;-1.786;2023-01-16T07:33:17;97842.81;;;20.77;69.90
53262;BME280;39658;51.090;-1.786;2023-01-16T07:35:44;97845.19;;;20.84;69.71
53262;BME280;39658;51.090;-1.786;2023-01-16T07:38:11;97854.03;;;20.89;69.54
53262;BME280;39658;51.090;-1.786;2023-01-16T07:40:38;97851.25;;;20.94;69.46
53262;BME280;39658;51.090;-1.786;2023-01-16T07:43:04;97856.88;;;20.98;69.41
53262;BME280;39658;51.090;-1.786;2023-01-16T07:45:33;97864.13;;;21.03;69.33
53262;BME280;39658;51.090;-1.786;2023-01-16T07:47:59;97860.81;;;21.06;69.49
53262;BME280;39658;51.090;-1.786;2023-01-16T07:50:26;97867.25;;;21.10;69.32
53262;BME280;39658;51.090;-1.786;2023-01-16T07:52:53;97873.16;;;21.12;69.38
53262;BME280;39658;51.090;-1.786;2023-01-16T07:55:20;97875.00;;;21.16;69.15
53262;BME280;39658;51.090;-1.786;2023-01-16T07:57:47;97881.50;;;21.15;69.40
53262;BME280;39658;51.090;-1.786;2023-01-16T08:00:14;97880.63;;;21.20;69.46
53262;BME280;39658;51.090;-1.786;2023-01-16T08:02:42;97885.13;;;21.30;66.87
53262;BME280;39658;51.090;-1.786;2023-01-16T08:05:10;97890.16;;;21.36;64.75
53262;BME280;39658;51.090;-1.786;2023-01-16T08:07:37;97904.03;;;21.48;61.52
53262;BME280;39658;51.090;-1.786;2023-01-16T08:10:04;97908.84;;;21.51;60.89
53262;BME280;39658;51.090;-1.786;2023-01-16T08:12:31;97915.59;;;21.54;61.80
53262;BME280;39658;51.090;-1.786;2023-01-16T08:14:58;97915.00;;;21.57;62.25
53262;BME280;39658;51.090;-1.786;2023-01-16T08:17:25;97917.66;;;21.62;62.66
53262;BME280;39658;51.090;-1.786;2023-01-16T08:19:53;97925.97;;;21.66;62.95
53262;BME280;39658;51.090;-1.786;2023-01-16T08:22:20;97924.59;;;21.68;63.46
53262;BME280;39658;51.090;-1.786;2023-01-16T08:24:46;97931.59;;;21.69;63.70
53262;BME280;39658;51.090;-1.786;2023-01-16T08:27:13;97941.75;;;21.77;63.36
53262;BME280;39658;51.090;-1.786;2023-01-16T08:29:40;97946.78;;;21.84;63.83
53262;BME280;39658;51.090;-1.786;2023-01-16T08:32:07;97944.81;;;21.89;63.93
53262;BME280;39658;51.090;-1.786;2023-01-16T08:34:35;97949.63;;;21.93;64.28
53262;BME280;39658;51.090;-1.786;2023-01-16T08:37:03;97957.44;;;21.94;64.62
53262;BME280;39658;51.090;-1.786;2023-01-16T08:39:30;97950.34;;;21.98;64.73
53262;BME280;39658;51.090;-1.786;2023-01-16T08:41:57;97961.16;;;21.98;64.57
53262;BME280;39658;51.090;-1.786;2023-01-16T08:44:41;97964.19;;;21.97;64.66
53262;BME280;39658;51.090;-1.786;2023-01-16T08:47:26;97964.47;;;21.95;63.01
53262;BME280;39658;51.090;-1.786;2023-01-16T08:50:12;97977.81;;;21.92;64.06
53262;BME280;39658;51.090;-1.786;2023-01-16T08:52:58;97977.09;;;21.86;64.19
53262;BME280;39658;51.090;-1.786;2023-01-16T08:55:25;97978.78;;;21.82;64.69
53262;BME280;39658;51.090;-1.786;2023-01-16T08:57:52;97987.78;;;21.77;65.06
53262;BME280;39658;51.090;-1.786;2023-01-16T09:00:19;98000.28;;;21.73;65.32
53262;BME280;39658;51.090;-1.786;2023-01-16T09:02:46;98003.06;;;21.68;65.42
53262;BME280;39658;51.090;-1.786;2023-01-16T09:05:13;98006.16;;;21.62;65.53
53262;BME280;39658;51.090;-1.786;2023-01-16T09:07:40;98009.19;;;21.55;65.81
53262;BME280;39658;51.090;-1.786;2023-01-16T09:10:10;98006.56;;;21.50;65.92
53262;BME280;39658;51.090;-1.786;2023-01-16T09:12:38;98020.97;;;21.45;66.14
53262;BME280;39658;51.090;-1.786;2023-01-16T09:15:22;98025.94;;;21.38;66.16
53262;BME280;39658;51.090;-1.786;2023-01-16T09:17:49;98039.81;;;21.32;66.26
53262;BME280;39658;51.090;-1.786;2023-01-16T09:20:16;98034.78;;;21.25;66.46
53262;BME280;39658;51.090;-1.786;2023-01-16T09:22:43;98036.69;;;21.19;66.56
53262;BME280;39658;51.090;-1.786;2023-01-16T09:25:11;98043.75;;;21.15;66.76
53262;BME280;39658;51.090;-1.786;2023-01-16T09:27:38;98050.84;;;21.11;66.82
53262;BME280;39658;51.090;-1.786;2023-01-16T09:30:06;98049.81;;;21.07;67.06
53262;BME280;39658;51.090;-1.786;2023-01-16T09:32:33;98048.78;;;21.03;67.19
53262;BME280;39658;51.090;-1.786;2023-01-16T09:35:00;98050.44;;;20.99;67.25
53262;BME280;39658;51.090;-1.786;2023-01-16T09:37:27;98061.25;;;20.99;67.43
53262;BME280;39658;51.090;-1.786;2023-01-16T09:39:53;98054.81;;;20.95;67.26
53262;BME280;39658;51.090;-1.786;2023-01-16T09:42:33;98064.84;;;20.94;67.52
53262;BME280;39658;51.090;-1.786;2023-01-16T09:45:24;98067.88;;;20.88;67.61
53262;BME280;39658;51.090;-1.786;2023-01-16T09:47:54;98069.84;;;20.82;66.12
53262;BME280;39658;51.090;-1.786;2023-01-16T09:50:28;98069.25;;;20.85;66.23
53262;BME280;39658;51.090;-1.786;2023-01-16T09:52:57;98076.84;;;20.83;66.52
53262;BME280;39658;51.090;-1.786;2023-01-16T09:55:46;98075.78;;;20.79;67.04
53262;BME280;39658;51.090;-1.786;2023-01-16T09:58:32;98081.22;;;20.74;67.29
53262;BME280;39658;51.090;-1.786;2023-01-16T10:01:05;98088.06;;;20.67;67.72
53262;BME280;39658;51.090;-1.786;2023-01-16T10:03:33;98098.41;;;20.59;68.02
53262;BME280;39658;51.090;-1.786;2023-01-16T10:06:06;98104.91;;;20.58;69.94
53262;BME280;39658;51.090;-1.786;2023-01-16T10:08:44;98096.84;;;20.53;65.72
53262;BME280;39658;51.090;-1.786;2023-01-16T10:11:17;98108.72;;;20.52;65.65
53262;BME280;39658;51.090;-1.786;2023-01-16T10:16:54;98106.63;;;20.39;67.34
53262;BME280;39658;51.090;-1.786;2023-01-16T10:19:34;98117.19;;;20.35;68.49
53262;BME280;39658;51.090;-1.786;2023-01-16T10:22:14;98113.41;;;20.42;69.22
53262;BME280;39658;51.090;-1.786;2023-01-16T10:24:52;98115.06;;;20.32;70.13
53262;BME280;39658;51.090;-1.786;2023-01-16T10:27:32;98124.03;;;20.23;70.98
53262;BME280;39658;51.090;-1.786;2023-01-16T10:30:04;98129.22;;;20.14;72.06
53262;BME280;39658;51.090;-1.786;2023-01-16T10:32:39;98130.84;;;20.15;72.42
53262;BME280;39658;51.090;-1.786;2023-01-16T10:35:13;98130.91;;;20.05;72.33
53262;BME280;39658;51.090;-1.786;2023-01-16T10:37:43;98134.97;;;19.97;73.24
53262;BME280;39658;51.090;-1.786;2023-01-16T10:40:13;98135.00;;;19.92;73.72
53262;BME280;39658;51.090;-1.786;2023-01-16T10:42:43;98139.88;;;19.90;74.69
53262;BME280;39658;51.090;-1.786;2023-01-16T10:45:34;98143.16;;;19.82;74.34
53262;BME280;39658;51.090;-1.786;2023-01-16T10:48:18;98144.56;;;19.75;75.10
53262;BME280;39658;51.090;-1.786;2023-01-16T10:51:03;98142.41;;;19.71;75.67
53262;BME280;39658;51.090;-1.786;2023-01-16T10:53:34;98139.75;;;19.66;75.04
53262;BME280;39658;51.090;-1.786;2023-01-16T10:56:03;98155.41;;;19.64;75.96
53262;BME280;39658;51.090;-1.786;2023-01-16T10:58:31;98146.50;;;19.64;76.51
53262;BME280;39658;51.090;-1.786;2023-01-16T11:01:05;98150.81;;;19.65;78.39
53262;BME280;39658;51.090;-1.786;2023-01-16T11:03:34;98150.25;;;19.68;78.06
53262;BME280;39658;51.090;-1.786;2023-01-16T11:06:12;98163.19;;;19.71;79.08
53262;BME280;39658;51.090;-1.786;2023-01-16T11:08:41;98156.44;;;19.74;80.29
53262;BME280;39658;51.090;-1.786;2023-01-16T11:11:10;98164.50;;;19.79;80.89
53262;BME280;39658;51.090;-1.786;2023-01-16T11:13:58;98161.50;;;19.85;81.64
53262;BME280;39658;51.090;-1.786;2023-01-16T11:16:44;98167.66;;;19.96;79.03
53262;BME280;39658;51.090;-1.786;2023-01-16T11:19:28;98162.22;;;20.06;79.76
53262;BME280;39658;51.090;-1.786;2023-01-16T11:22:21;98163.25;;;20.15;80.20
53262;BME280;39658;51.090;-1.786;2023-01-16T11:24:53;98158.34;;;20.22;80.67
53262;BME280;39658;51.090;-1.786;2023-01-16T11:27:22;98158.03;;;20.29;81.18
53262;BME280;39658;51.090;-1.786;2023-01-16T11:29:52;98162.53;;;20.39;81.03
53262;BME280;39658;51.090;-1.786;2023-01-16T11:32:21;98162.81;;;20.47;81.51
53262;BME280;39658;51.090;-1.786;2023-01-16T11:34:52;98159.78;;;20.54;81.44
53262;BME280;39658;51.090;-1.786;2023-01-16T11:37:20;98155.94;;;20.60;81.23
53262;BME280;39658;51.090;-1.786;2023-01-16T11:39:49;98146.19;;;20.64;81.29
53262;BME280;39658;51.090;-1.786;2023-01-16T11:42:17;98146.44;;;20.68;81.29
53262;BME280;39658;51.090;-1.786;2023-01-16T11:45:12;98152.84;;;20.77;81.14
53262;BME280;39658;51.090;-1.786;2023-01-16T11:48:00;98148.47;;;20.81;81.33
53262;BME280;39658;51.090;-1.786;2023-01-16T11:50:49;98146.28;;;20.88;80.87
53262;BME280;39658;51.090;-1.786;2023-01-16T11:53:16;98152.19;;;20.90;79.61
53262;BME280;39658;51.090;-1.786;2023-01-16T11:55:54;98151.06;;;20.96;79.71
53262;BME280;39658;51.090;-1.786;2023-01-16T11:58:34;98146.69;;;21.00;79.97
53262;BME280;39658;51.090;-1.786;2023-01-16T12:01:09;98149.63;;;21.04;79.85
53262;BME280;39658;51.090;-1.786;2023-01-16T12:06:47;98153.94;;;21.05;79.55
53262;BME280;39658;51.090;-1.786;2023-01-16T12:09:31;98166.13;;;21.02;79.59
53262;BME280;39658;51.090;-1.786;2023-01-16T12:12:10;98166.94;;;21.03;76.88
53262;BME280;39658;51.090;-1.786;2023-01-16T12:15:00;98153.13;;;21.04;77.22
53262;BME280;39658;51.090;-1.786;2023-01-16T12:17:41;98162.63;;;21.02;76.91
53262;BME280;39658;51.090;-1.786;2023-01-16T12:20:14;98163.72;;;21.01;77.17
53262;BME280;39658;51.090;-1.786;2023-01-16T12:22:59;98151.56;;;20.98;77.11
53262;BME280;39658;51.090;-1.786;2023-01-16T12:25:35;98158.06;;;20.97;75.03
53262;BME280;39658;51.090;-1.786;2023-01-16T12:28:17;98164.28;;;20.98;75.14
53262;BME280;39658;51.090;-1.786;2023-01-16T12:31:00;98162.97;;;20.95;75.25
53262;BME280;39658;51.090;-1.786;2023-01-16T12:33:42;98168.66;;;20.93;74.55
53262;BME280;39658;51.090;-1.786;2023-01-16T12:36:16;98159.50;;;20.89;74.72
53262;BME280;39658;51.090;-1.786;2023-01-16T12:38:52;98157.38;;;20.86;74.80
53262;BME280;39658;51.090;-1.786;2023-01-16T12:41:23;98150.63;;;20.84;74.87
53262;BME280;39658;51.090;-1.786;2023-01-16T12:44:32;98151.19;;;20.81;74.87
53262;BME280;39658;51.090;-1.786;2023-01-16T12:47:20;98161.22;;;20.75;74.90
53262;BME280;39658;51.090;-1.786;2023-01-16T12:50:00;98163.69;;;20.72;74.43
53262;BME280;39658;51.090;-1.786;2023-01-16T12:52:43;98166.16;;;20.68;74.61
53262;BME280;39658;51.090;-1.786;2023-01-16T12:55:22;98158.03;;;20.68;74.04
53262;BME280;39658;51.090;-1.786;2023-01-16T12:57:58;98150.50;;;20.65;74.29
53262;BME280;39658;51.090;-1.786;2023-01-16T13:00:30;98152.97;;;20.61;74.42
53262;BME280;39658;51.090;-1.786;2023-01-16T13:03:03;98167.81;;;20.64;74.09
53262;BME280;39658;51.090;-1.786;2023-01-16T13:05:36;98156.81;;;20.55;74.23
53262;BME280;39658;51.090;-1.786;2023-01-16T13:08:15;98155.75;;;20.51;74.35
53262;BME280;39658;51.090;-1.786;2023-01-16T13:10:47;98152.00;;;20.47;74.70
53262;BME280;39658;51.090;-1.786;2023-01-16T13:13:36;98156.34;;;20.43;75.14
53262;BME280;39658;51.090;-1.786;2023-01-16T13:16:10;98146.34;;;20.39;75.04
53262;BME280;39658;51.090;-1.786;2023-01-16T13:18:42;98153.41;;;20.34;75.17
53262;BME280;39658;51.090;-1.786;2023-01-16T13:21:14;98156.38;;;20.33;74.96
53262;BME280;39658;51.090;-1.786;2023-01-16T13:23:47;98149.91;;;20.29;75.02